createdAt,value
2023-05-27T20:20:00.876Z,101920
2023-05-27T20:25:00.809Z,101960
2023-05-27T20:30:00.986Z,101920
2023-05-27T20:35:00.721Z,101920
2023-05-27T20:40:00.538Z,101930
2023-05-27T20:45:00.749Z,101920
2023-05-27T20:50:00.728Z,101940
2023-05-27T20:55:00.702Z,101950
2023-05-27T21:00:00.644Z,101930
2023-05-27T21:05:00.844Z,101920
2023-05-27T21:10:00.853Z,101940
2023-05-27T21:15:00.798Z,101910
2023-05-27T21:20:00.529Z,101920
2023-05-27T21:25:00.493Z,101920
2023-05-27T21:30:00.646Z,101930
2023-05-27T21:35:00.728Z,101920
2023-05-27T21:40:00.704Z,101930
2023-05-27T21:45:00.515Z,101930
2023-05-27T21:50:00.924Z,101930
2023-05-27T21:55:00.814Z,101950
2023-05-27T22:00:01.109Z,101920
2023-05-27T22:05:00.901Z,101920
2023-05-27T22:10:00.527Z,101920
2023-05-27T22:15:00.624Z,101900
2023-05-27T22:20:00.848Z,101920
2023-05-27T22:25:00.661Z,101910
2023-05-27T22:30:00.861Z,101930
2023-05-27T22:35:00.598Z,101940
2023-05-27T22:40:00.554Z,101900
2023-05-27T22:45:00.792Z,101920
2023-05-27T22:50:00.553Z,101910
2023-05-27T22:55:00.730Z,101900
2023-05-27T23:00:00.841Z,101880
2023-05-27T23:05:00.760Z,101890
2023-05-27T23:10:00.647Z,101900
2023-05-27T23:15:00.501Z,101880
2023-05-27T23:20:00.663Z,101890
2023-05-27T23:25:00.854Z,101870
2023-05-27T23:30:00.574Z,101880
2023-05-27T23:35:00.520Z,101890
2023-05-27T23:40:00.456Z,101890
2023-05-27T23:45:00.793Z,101890
2023-05-27T23:50:00.806Z,101890
2023-05-27T23:55:00.679Z,101880
